Terminal Aerodrome Forecast
Issued by NWS Cleveland, OH

Home | Current Version | Previous Version | Graphics & Text | Print | Product List | Glossary On
Versions: 1 2 3 4 5 6 7 8 9 10 11 12 13 14 15 16 17 18 19 20 21 22 23 24 25 26 27 28 29 30 31
000
FTUS41 KCLE 252000 AAB
TAFCLE
TAF AMD
KCLE 252026Z 2520/2624 23015G25KT P6SM OVC025
     FM252300 21010KT P6SM OVC025
     FM260100 20009KT P6SM SCT250
     FM261300 20010G15KT P6SM BKN250
     FM262200 19008KT P6SM OVC250=

USA.gov is the U.S. government's official web portal to all federal, state and local government web resources and services.